Time,TemperatureF,DewpointF,PressureIn,WindDirection,WindDirectionDegrees,WindSpeedMPH,WindSpeedGustMPH,Humidity,HourlyPrecipIn,Conditions,Clouds,dailyrainin,SolarRadiationWatts/m^2,SoftwareType,DateUTC
2013-01-06 14:01:00,40.0,15.0,-100.00,SSE,160,11.0,16.0,35,0.00,,,0.00,568.000000,,2013-01-06 21:01:00,
2013-01-06 14:33:00,40.0,15.0,-100.00,SSE,160,11.0,16.0,35,0.00,,,0.00,568.000000,,2013-01-06 21:33:00,
2013-01-06 14:43:00,40.0,15.0,-100.00,SSE,160,11.0,16.0,35,0.00,,,0.00,568.000000,,2013-01-06 21:43:00,
2013-01-06 14:53:00,40.0,15.0,-100.00,SSE,160,11.0,16.0,35,0.00,,,0.00,568.000000,,2013-01-06 21:53:00,
2013-01-06 15:01:00,41.0,14.0,-100.00,SE,137,9.0,15.0,33,0.00,,,0.00,452.000000,,2013-01-06 22:01:00,
2013-01-06 15:33:00,41.0,14.0,-100.00,SE,137,9.0,15.0,33,0.00,,,0.00,452.000000,,2013-01-06 22:33:00,
2013-01-06 15:43:00,41.0,14.0,-100.00,SE,137,9.0,15.0,33,0.00,,,0.00,452.000000,,2013-01-06 22:43:00,
2013-01-06 15:53:00,41.0,14.0,-100.00,SE,137,9.0,15.0,33,0.00,,,0.00,452.000000,,2013-01-06 22:53:00,
2013-01-06 16:01:00,37.0,14.0,-100.00,SE,130,9.0,14.0,39,0.00,,,0.00,210.000000,,2013-01-06 23:01:00,
2013-01-06 16:33:00,37.0,14.0,-100.00,SE,130,9.0,14.0,39,0.00,,,0.00,210.000000,,2013-01-06 23:33:00,
2013-01-06 16:43:00,37.0,14.0,-100.00,SE,130,9.0,14.0,39,0.00,,,0.00,210.000000,,2013-01-06 23:43:00,
2013-01-06 16:53:00,37.0,14.0,-100.00,SE,130,9.0,14.0,39,0.00,,,0.00,210.000000,,2013-01-06 23:53:00,
2013-01-06 17:01:00,35.0,14.0,-100.00,SE,127,9.0,17.0,41,0.00,,,0.00,60.000000,,2013-01-07 00:01:00,
2013-01-06 17:33:00,35.0,14.0,-100.00,SE,127,9.0,17.0,41,0.00,,,0.00,60.000000,,2013-01-07 00:33:00,
2013-01-06 17:43:00,35.0,14.0,-100.00,SE,127,9.0,17.0,41,0.00,,,0.00,60.000000,,2013-01-07 00:43:00,
2013-01-06 17:53:00,35.0,14.0,-100.00,SE,127,9.0,17.0,41,0.00,,,0.00,60.000000,,2013-01-07 00:53:00,
2013-01-06 18:01:00,33.0,14.0,-100.00,SE,128,7.0,12.0,46,0.00,,,0.00,4.000000,,2013-01-07 01:01:00,
2013-01-06 18:23:00,33.0,14.0,-100.00,SE,128,7.0,12.0,46,0.00,,,0.00,4.000000,,2013-01-07 01:23:00,
2013-01-06 18:32:00,33.0,14.0,-100.00,SE,128,7.0,12.0,46,0.00,,,0.00,4.000000,,2013-01-07 01:32:00,
2013-01-06 18:43:00,33.0,14.0,-100.00,SE,128,7.0,12.0,46,0.00,,,0.00,4.000000,,2013-01-07 01:43:00,
2013-01-06 18:53:00,33.0,14.0,-100.00,SE,128,7.0,12.0,46,0.00,,,0.00,4.000000,,2013-01-07 01:53:00,
2013-01-06 19:01:00,31.0,17.0,-100.00,ESE,123,7.0,12.0,55,0.00,,,0.00,0.000000,,2013-01-07 02:01:00,
2013-01-06 19:23:00,31.0,17.0,-100.00,ESE,123,7.0,12.0,55,0.00,,,0.00,0.000000,,2013-01-07 02:23:00,
2013-01-06 19:33:00,31.0,17.0,-100.00,ESE,123,7.0,12.0,55,0.00,,,0.00,0.000000,,2013-01-07 02:33:00,
2013-01-06 19:43:00,31.0,17.0,-100.00,ESE,123,7.0,12.0,55,0.00,,,0.00,0.000000,,2013-01-07 02:43:00,
2013-01-06 19:53:00,31.0,17.0,-100.00,ESE,123,7.0,12.0,55,0.00,,,0.00,0.000000,,2013-01-07 02:53:00,
2013-01-06 20:01:00,30.0,20.0,-100.00,SSE,159,6.0,13.0,65,0.00,,,0.00,0.000000,,2013-01-07 03:01:00,
2013-01-06 20:23:00,30.0,20.0,-100.00,SSE,159,6.0,13.0,65,0.00,,,0.00,0.000000,,2013-01-07 03:23:00,
2013-01-06 20:33:00,30.0,20.0,-100.00,SSE,159,6.0,13.0,65,0.00,,,0.00,0.000000,,2013-01-07 03:33:00,
2013-01-06 20:43:00,30.0,20.0,-100.00,SSE,159,6.0,13.0,65,0.00,,,0.00,0.000000,,2013-01-07 03:43:00,
2013-01-06 20:53:00,30.0,20.0,-100.00,SSE,159,6.0,13.0,65,0.00,,,0.00,0.000000,,2013-01-07 03:53:00,
2013-01-06 21:01:00,29.0,20.0,-100.00,SSE,156,5.0,10.0,68,0.00,,,0.00,0.000000,,2013-01-07 04:01:00,
2013-01-06 21:33:00,29.0,20.0,-100.00,SSE,156,5.0,10.0,68,0.00,,,0.00,0.000000,,2013-01-07 04:33:00,
2013-01-06 21:42:00,29.0,20.0,-100.00,SSE,156,5.0,10.0,68,0.00,,,0.00,0.000000,,2013-01-07 04:42:00,
2013-01-06 21:52:00,29.0,20.0,-100.00,SSE,156,5.0,10.0,68,0.00,,,0.00,0.000000,,2013-01-07 04:52:00,
2013-01-06 22:01:00,32.0,20.0,-100.00,SE,141,7.0,12.0,60,0.00,,,0.00,0.000000,,2013-01-07 05:01:00,
2013-01-06 22:22:00,32.0,20.0,-100.00,SE,141,7.0,12.0,60,0.00,,,0.00,0.000000,,2013-01-07 05:22:00,
2013-01-06 22:33:00,32.0,20.0,-100.00,SE,141,7.0,12.0,60,0.00,,,0.00,0.000000,,2013-01-07 05:33:00,
2013-01-06 22:43:00,32.0,20.0,-100.00,SE,141,7.0,12.0,60,0.00,,,0.00,0.000000,,2013-01-07 05:43:00,
2013-01-06 22:53:00,32.0,20.0,-100.00,SE,141,7.0,12.0,60,0.00,,,0.00,0.000000,,2013-01-07 05:53:00,
2013-01-06 23:01:00,33.0,20.0,-100.00,ESE,113,8.0,13.0,59,0.00,,,0.00,0.000000,,2013-01-07 06:01:00,
2013-01-06 23:22:00,33.0,20.0,-100.00,ESE,113,8.0,13.0,59,0.00,,,0.00,0.000000,,2013-01-07 06:22:00,
2013-01-06 23:32:00,33.0,20.0,-100.00,ESE,113,8.0,13.0,59,0.00,,,0.00,0.000000,,2013-01-07 06:32:00,
2013-01-06 23:42:00,33.0,20.0,-100.00,ESE,113,8.0,13.0,59,0.00,,,0.00,0.000000,,2013-01-07 06:42:00,
2013-01-06 23:52:00,33.0,20.0,-100.00,ESE,113,8.0,13.0,59,0.00,,,0.00,0.000000,,2013-01-07 06:52:00,